Home > Products > Valid Products > TAF

000
FTUS42 KJAX 251700
TAFJAX
TAF
KJAX 251720Z 2518/2618 34007KT P6SM SKC
     FM252300 00000KT P6SM SKC
     FM261500 32006KT P6SM SKC=



000
FTUS42 KJAX 251700
TAFGNV
TAF
KGNV 251720Z 2518/2618 34007KT P6SM SKC
     FM252300 00000KT P6SM SKC
     FM261500 32006KT P6SM SKC=



000
FTUS42 KJAX 251700
TAFCRG
TAF
KCRG 251720Z 2518/2618 34007KT P6SM SKC
     FM252300 00000KT P6SM SKC
     FM261500 32006KT P6SM SKC=



000
FTUS42 KJAX 251700
TAFSSI
TAF
KSSI 251720Z 2518/2618 34007KT P6SM SKC
     FM252300 00000KT P6SM SKC
     FM261500 32007KT P6SM SKC=



000
FTUS42 KJAX 251700
TAFJAX
TAF
KJAX 251720Z 2518/2618 34007KT P6SM SKC
     FM252300 00000KT P6SM SKC
     FM261500 32006KT P6SM SKC=



000
FTUS42 KJAX 251700
TAFSSI
TAF
KSSI 251720Z 2518/2618 34007KT P6SM SKC
     FM252300 00000KT P6SM SKC
     FM261500 32007KT P6SM SKC=



000
FTUS42 KJAX 251700
TAFGNV
TAF
KGNV 251720Z 2518/2618 34007KT P6SM SKC
     FM252300 00000KT P6SM SKC
     FM261500 32006KT P6SM SKC=



000
FTUS42 KJAX 251700
TAFCRG
TAF
KCRG 251720Z 2518/2618 34007KT P6SM SKC
     FM252300 00000KT P6SM SKC
     FM261500 32006KT P6SM SKC=



000
FTUS42 KJAX 251100
TAFJAX
TAF
KJAX 251120Z 2512/2612 00000KT P6SM SKC
     FM251400 36007KT P6SM SKC
     FM260200 00000KT P6SM SKC=



000
FTUS42 KJAX 251100
TAFSSI
TAF
KSSI 251120Z 2512/2612 VRB02KT P6SM SKC
     FM251400 01007KT P6SM SKC
     FM251900 08007KT P6SM SKC
     FM260200 00000KT P6SM SKC=



000
FTUS42 KJAX 251100
TAFCRG
TAF
KCRG 251120Z 2512/2612 00000KT P6SM SKC
     FM251400 01007KT P6SM SKC
     FM260200 00000KT P6SM SKC=



000
FTUS42 KJAX 251100
TAFGNV
TAF
KGNV 251120Z 2512/2612 00000KT P6SM SKC
     FM251400 36007KT P6SM SKC
     FM260200 00000KT P6SM SKC=



000
FTUS42 KJAX 251100
TAFSSI
TAF
KSSI 251120Z 2512/2612 VRB02KT P6SM SKC
     FM251400 01007KT P6SM SKC
     FM251900 08007KT P6SM SKC
     FM260200 00000KT P6SM SKC=



000
FTUS42 KJAX 251100
TAFGNV
TAF
KGNV 251120Z 2512/2612 00000KT P6SM SKC
     FM251400 36007KT P6SM SKC
     FM260200 00000KT P6SM SKC=



000
FTUS42 KJAX 251100
TAFJAX
TAF
KJAX 251120Z 2512/2612 00000KT P6SM SKC
     FM251400 36007KT P6SM SKC
     FM260200 00000KT P6SM SKC=



000
FTUS42 KJAX 251100
TAFCRG
TAF
KCRG 251120Z 2512/2612 00000KT P6SM SKC
     FM251400 01007KT P6SM SKC
     FM260200 00000KT P6SM SKC=



000
FTUS42 KJAX 251000 AAA
TAFSSI
TAF AMD
KSSI 251011Z 2510/2606 VRB02KT P6SM SKC
     FM251400 36007KT P6SM SKC
     FM251900 05007KT P6SM SKC
     FM260200 00000KT P6SM SKC=



000
FTUS42 KJAX 250500
TAFSSI
TAF
KSSI 250532Z 2506/2606 VRB02KT P6SM SKC
      TEMPO 2508/2511 5SM BR
     FM251400 36007KT P6SM SKC
     FM251900 05007KT P6SM SKC
     FM260200 00000KT P6SM SKC=



000
FTUS42 KJAX 250500
TAFGNV
TAF
KGNV 250532Z 2506/2606 00000KT P6SM SKC
     FM251400 36007KT P6SM SKC
     FM260200 00000KT P6SM SKC=



000
FTUS42 KJAX 250500
TAFJAX
TAF
KJAX 250532Z 2506/2606 00000KT P6SM SKC
     FM251400 36007KT P6SM SKC
     FM260200 00000KT P6SM SKC=



000
FTUS42 KJAX 250500
TAFCRG
TAF
KCRG 250532Z 2506/2606 00000KT P6SM SKC
     FM251400 01007KT P6SM SKC
     FM260200 00000KT P6SM SKC=



000
FTUS42 KJAX 242300
TAFCRG
TAF
KCRG 242329Z 2500/2524 00000KT P6SM FEW200
     FM251300 34006KT P6SM SKC
     FM251800 01009KT P6SM SKC=



000
FTUS42 KJAX 242300
TAFGNV
TAF
KGNV 242329Z 2500/2524 00000KT P6SM FEW200
     FM251300 33005KT P6SM SKC
     FM251800 36008KT P6SM SKC=



000
FTUS42 KJAX 242300
TAFJAX
TAF
KJAX 242329Z 2500/2524 00000KT P6SM FEW200
     FM251300 34005KT P6SM SKC
     FM251800 01008KT P6SM SKC=



000
FTUS42 KJAX 242300
TAFSSI
TAF
KSSI 242329Z 2500/2524 00000KT P6SM FEW200
     FM251300 35006KT P6SM SKC
     FM251800 02009KT P6SM SKC=



000
FTUS42 KJAX 241700
TAFCRG
TAF
KCRG 241733Z 2418/2518 04005KT P6SM FEW250=



000
FTUS42 KJAX 241700
TAFGNV
TAF
KGNV 241733Z 2418/2518 03005KT P6SM FEW250=



000
FTUS42 KJAX 241700
TAFJAX
TAF
KJAX 241733Z 2418/2518 04005KT P6SM FEW250=



000
FTUS42 KJAX 241700
TAFSSI
TAF
KSSI 241733Z 2418/2518 04006KT P6SM FEW250=



000
FTUS42 KJAX 241100
TAFGNV
TAF
KGNV 241137Z 2412/2512 VRB03KT P6SM SCT250
     FM241500 05007KT P6SM FEW030 SCT250
     FM242300 00000KT P6SM FEW250=



000
FTUS42 KJAX 241100
TAFJAX
TAF
KJAX 241137Z 2412/2512 03003KT P6SM SCT250
     FM241500 05007KT P6SM FEW030 SCT250
     FM242300 00000KT P6SM FEW250=



000
FTUS42 KJAX 241100
TAFSSI
TAF
KSSI 241137Z 2412/2512 34003KT P6SM SCT250
     FM241400 05007KT P6SM FEW030 SCT200
     FM242300 02003KT P6SM FEW250=



000
FTUS42 KJAX 241100
TAFCRG
TAF
KCRG 241137Z 2412/2512 02003KT P6SM SCT250
     FM241500 05007KT P6SM FEW030 SCT250
     FM242300 00000KT P6SM FEW250=



000
FTUS42 KJAX 240900 AAA
TAFSSI
TAF AMD
KSSI 240904Z 2409/2506 00000KT 6SM BR SCT250
      TEMPO 2409/2411 3SM BR
     FM241300 02006KT P6SM SCT025 SCT250
     FM241700 07008KT P6SM SCT035 BKN200
     FM250200 03002KT P6SM FEW250=



000
FTUS42 KJAX 240500
TAFGNV
TAF
KGNV 240521Z 2406/2506 00000KT P6SM SCT250
     FM241400 02004KT P6SM SCT025 SCT250
     FM241700 04008KT P6SM SCT035 BKN250
     FM250200 00000KT P6SM FEW250=



000
FTUS42 KJAX 240500
TAFJAX
TAF
KJAX 240521Z 2406/2506 00000KT P6SM SCT250
     FM241400 03005KT P6SM SCT025 SCT250
     FM241700 05008KT P6SM SCT035 BKN250
     FM250200 00000KT P6SM FEW250=



000
FTUS42 KJAX 240500
TAFCRG
TAF
KCRG 240521Z 2406/2506 00000KT P6SM SCT250
     FM241400 03005KT P6SM SCT025 SCT250
     FM241700 05008KT P6SM SCT035 BKN250
     FM250200 00000KT P6SM FEW250=



000
FTUS42 KJAX 240500
TAFSSI
TAF
KSSI 240521Z 2406/2506 00000KT P6SM SCT250
     FM241400 02006KT P6SM SCT025 SCT250
     FM241700 07008KT P6SM SCT035 BKN200
     FM250200 03002KT P6SM FEW250=



000
FTUS42 KJAX 232300
TAFGNV
TAF
KGNV 232327Z 2400/2424 00000KT P6SM FEW250
     FM241400 01004KT P6SM FEW025 SCT250
     FM241800 04007KT P6SM SCT035 BKN200
     FM242200 05004KT P6SM FEW040 SCT200=



000
FTUS42 KJAX 232300
TAFCRG
TAF
KCRG 232327Z 2400/2424 00000KT P6SM FEW250
     FM241400 02006KT P6SM FEW025 SCT250
     FM241700 05009KT P6SM SCT035 BKN200
     FM242200 06006KT P6SM FEW040 SCT200=



000
FTUS42 KJAX 232300
TAFJAX
TAF
KJAX 232327Z 2400/2424 00000KT P6SM FEW250
     FM241400 02005KT P6SM FEW025 SCT250
     FM241700 05008KT P6SM SCT035 BKN200
     FM242200 06005KT P6SM FEW040 SCT200=



000
FTUS42 KJAX 232300
TAFSSI
TAF
KSSI 232327Z 2400/2424 00000KT P6SM FEW250
     FM241400 02006KT P6SM FEW025 SCT250
     FM241800 05008KT P6SM SCT035 BKN200
     FM242200 08006KT P6SM FEW040 SCT200=



000
FTUS42 KJAX 231700
TAFJAX
TAF
KJAX 231740Z 2318/2418 04008KT P6SM FEW040
     FM232300 VRB02KT P6SM SKC
     FM241400 03007KT P6SM FEW030=



000
FTUS42 KJAX 231700
TAFCRG
TAF
KCRG 231740Z 2318/2418 05008KT P6SM FEW040
     FM232300 VRB02KT P6SM SKC
     FM241400 03007KT P6SM FEW030=



000
FTUS42 KJAX 231700
TAFGNV
TAF
KGNV 231740Z 2318/2418 05009KT P6SM FEW040
     FM232300 VRB02KT P6SM SKC
     FM241400 03007KT P6SM FEW030=



000
FTUS42 KJAX 231700
TAFSSI
TAF
KSSI 231740Z 2318/2418 04008KT P6SM SKC
     FM240000 01003KT P6SM SKC
     FM241400 03007KT P6SM FEW030=



000
FTUS42 KJAX 231700
TAFSSI
TAF
KSSI 231740Z 2318/2418 04008KT P6SM SKC
     FM240000 01003KT P6SM SKC
     FM241400 03007KT P6SM FEW030=



000
FTUS42 KJAX 231700
TAFCRG
TAF
KCRG 231740Z 2318/2418 05008KT P6SM FEW040
     FM232300 VRB02KT P6SM SKC
     FM241400 03007KT P6SM FEW030=



000
FTUS42 KJAX 231700
TAFGNV
TAF
KGNV 231740Z 2318/2418 05009KT P6SM FEW040
     FM232300 VRB02KT P6SM SKC
     FM241400 03007KT P6SM FEW030=



000
FTUS42 KJAX 231700
TAFJAX
TAF
KJAX 231740Z 2318/2418 04008KT P6SM FEW040
     FM232300 VRB02KT P6SM SKC
     FM241400 03007KT P6SM FEW030=



000
FTUS42 KJAX 231100
TAFSSI
TAF
KSSI 231121Z 2312/2412 36007KT P6SM SKC
     FM231400 03011KT P6SM SKC
     FM240000 04005KT P6SM SKC=



000
FTUS42 KJAX 231100
TAFJAX
TAF
KJAX 231121Z 2312/2412 35005KT P6SM SKC
     FM231500 03009KT P6SM SKC
     FM240000 VRB02KT P6SM SKC=



000
FTUS42 KJAX 231100
TAFGNV
TAF
KGNV 231121Z 2312/2412 35004KT P6SM SKC
     FM231500 05009KT P6SM SKC
     FM240000 VRB02KT P6SM SKC=



000
FTUS42 KJAX 231100
TAFCRG
TAF
KCRG 231121Z 2312/2412 35006KT P6SM SKC
     FM231500 02010KT P6SM SKC
     FM240000 VRB03KT P6SM SKC=



000
FTUS42 KJAX 230500
TAFGNV
TAF
KGNV 230521Z 2306/2406 01004KT P6SM FEW250
     FM231500 04008KT P6SM SKC
     FM240000 VRB02KT P6SM SKC=



000
FTUS42 KJAX 230500
TAFSSI
TAF
KSSI 230521Z 2306/2406 VRB03KT P6SM SKC
     FM231400 03011KT P6SM SKC
     FM240000 04005KT P6SM SKC=



000
FTUS42 KJAX 230500
TAFCRG
TAF
KCRG 230521Z 2306/2406 01003KT P6SM FEW250
     FM231500 02010KT P6SM SKC
     FM240000 VRB03KT P6SM SKC=



000
FTUS42 KJAX 230500
TAFJAX
TAF
KJAX 230521Z 2306/2406 VRB02KT P6SM FEW250
     FM231500 03009KT P6SM SKC
     FM240000 VRB02KT P6SM SKC=



000
FTUS42 KJAX 222300
TAFSSI
TAF
KSSI 222320Z 2300/2324 01005KT P6SM SKC
     FM231400 03011KT P6SM SKC=



000
FTUS42 KJAX 222300
TAFGNV
TAF
KGNV 222320Z 2300/2324 VRB02KT P6SM SKC
     FM231400 04008KT P6SM FEW030=



000
FTUS42 KJAX 222300
TAFJAX
TAF
KJAX 222320Z 2300/2324 05005KT P6SM SKC
     FM230200 36003KT P6SM SKC
     FM231400 03009KT P6SM SKC=



000
FTUS42 KJAX 222300
TAFCRG
TAF
KCRG 222320Z 2300/2324 04006KT P6SM SKC
     FM230200 01003KT P6SM SKC
     FM231400 01011KT P6SM SKC=



    US Dept of Commerce
    National Oceanic and Atmospheric Administration
    National Weather Service
    1325 East West Highway
    Silver Spring, MD 20910
    Page Author: NWS Internet Services Team
Disclaimer
Information Quality
Credits
Glossary
Privacy Policy
Freedom of Information Act (FOIA)
About Us
Career Opportunities